sensor_id;sensor_type;location;lat;lon;timestamp;P1;durP1;ratioP1;P2;durP2;ratioP2
44452;SDS011;30155;52.164;21.236;2023-01-25T00:04:18;36.60;;;23.20;;
44452;SDS011;30155;52.164;21.236;2023-01-25T00:09:12;34.40;;;21.80;;
44452;SDS011;30155;52.164;21.236;2023-01-25T00:14:05;39.00;;;23.10;;
44452;SDS011;30155;52.164;21.236;2023-01-25T00:18:58;37.60;;;26.90;;
44452;SDS011;30155;52.164;21.236;2023-01-25T00:23:51;35.70;;;23.10;;
44452;SDS011;30155;52.164;21.236;2023-01-25T00:28:48;32.10;;;19.60;;
44452;SDS011;30155;52.164;21.236;2023-01-25T00:33:49;44.30;;;26.40;;
44452;SDS011;30155;52.164;21.236;2023-01-25T00:38:47;41.80;;;23.30;;
44452;SDS011;30155;52.164;21.236;2023-01-25T00:43:41;37.10;;;22.80;;
44452;SDS011;30155;52.164;21.236;2023-01-25T00:48:34;31.50;;;20.40;;
44452;SDS011;30155;52.164;21.236;2023-01-25T00:53:27;23.30;;;16.20;;
44452;SDS011;30155;52.164;21.236;2023-01-25T00:58:20;31.20;;;19.50;;
44452;SDS011;30155;52.164;21.236;2023-01-25T01:03:13;31.00;;;20.20;;
44452;SDS011;30155;52.164;21.236;2023-01-25T01:08:09;28.30;;;18.70;;
44452;SDS011;30155;52.164;21.236;2023-01-25T01:13:03;26.30;;;17.00;;
44452;SDS011;30155;52.164;21.236;2023-01-25T01:17:56;23.90;;;15.90;;
44452;SDS011;30155;52.164;21.236;2023-01-25T01:22:50;20.60;;;14.20;;
44452;SDS011;30155;52.164;21.236;2023-01-25T01:27:45;16.60;;;13.30;;
44452;SDS011;30155;52.164;21.236;2023-01-25T01:32:38;16.00;;;12.30;;
44452;SDS011;30155;52.164;21.236;2023-01-25T01:37:31;19.20;;;12.40;;
44452;SDS011;30155;52.164;21.236;2023-01-25T01:42:24;18.50;;;13.60;;
44452;SDS011;30155;52.164;21.236;2023-01-25T01:47:19;15.90;;;12.70;;
44452;SDS011;30155;52.164;21.236;2023-01-25T01:52:19;18.40;;;13.10;;
44452;SDS011;30155;52.164;21.236;2023-01-25T01:57:19;19.50;;;14.00;;
44452;SDS011;30155;52.164;21.236;2023-01-25T02:02:17;18.60;;;12.40;;
44452;SDS011;30155;52.164;21.236;2023-01-25T02:07:18;20.60;;;12.50;;
44452;SDS011;30155;52.164;21.236;2023-01-25T02:12:15;17.90;;;12.40;;
44452;SDS011;30155;52.164;21.236;2023-01-25T02:17:09;22.90;;;15.40;;
44452;SDS011;30155;52.164;21.236;2023-01-25T02:22:07;23.10;;;14.50;;
44452;SDS011;30155;52.164;21.236;2023-01-25T02:27:05;20.00;;;14.50;;
44452;SDS011;30155;52.164;21.236;2023-01-25T02:31:59;15.30;;;10.80;;
44452;SDS011;30155;52.164;21.236;2023-01-25T02:36:54;19.50;;;14.60;;
44452;SDS011;30155;52.164;21.236;2023-01-25T02:41:47;19.40;;;14.70;;
44452;SDS011;30155;52.164;21.236;2023-01-25T02:46:40;19.00;;;13.40;;
44452;SDS011;30155;52.164;21.236;2023-01-25T02:51:37;19.40;;;13.90;;
44452;SDS011;30155;52.164;21.236;2023-01-25T02:56:32;22.50;;;15.00;;
44452;SDS011;30155;52.164;21.236;2023-01-25T03:01:26;20.40;;;15.00;;
44452;SDS011;30155;52.164;21.236;2023-01-25T03:06:18;18.60;;;14.00;;
44452;SDS011;30155;52.164;21.236;2023-01-25T03:11:12;18.80;;;13.80;;
44452;SDS011;30155;52.164;21.236;2023-01-25T03:16:07;17.10;;;13.30;;
44452;SDS011;30155;52.164;21.236;2023-01-25T03:21:03;17.10;;;12.90;;
44452;SDS011;30155;52.164;21.236;2023-01-25T03:26:14;15.40;;;12.30;;
44452;SDS011;30155;52.164;21.236;2023-01-25T03:31:24;18.50;;;13.00;;
44452;SDS011;30155;52.164;21.236;2023-01-25T03:36:17;16.20;;;11.70;;
44452;SDS011;30155;52.164;21.236;2023-01-25T03:41:10;17.10;;;10.90;;
44452;SDS011;30155;52.164;21.236;2023-01-25T03:46:04;14.40;;;10.20;;
44452;SDS011;30155;52.164;21.236;2023-01-25T03:50:58;10.80;;;8.30;;
44452;SDS011;30155;52.164;21.236;2023-01-25T03:55:52;11.40;;;8.00;;
44452;SDS011;30155;52.164;21.236;2023-01-25T04:00:46;9.10;;;6.40;;
44452;SDS011;30155;52.164;21.236;2023-01-25T04:05:39;8.20;;;5.70;;
44452;SDS011;30155;52.164;21.236;2023-01-25T04:10:33;9.30;;;5.90;;
44452;SDS011;30155;52.164;21.236;2023-01-25T04:15:27;7.40;;;6.00;;
44452;SDS011;30155;52.164;21.236;2023-01-25T04:20:20;8.80;;;6.50;;
44452;SDS011;30155;52.164;21.236;2023-01-25T04:25:13;6.20;;;4.80;;
44452;SDS011;30155;52.164;21.236;2023-01-25T04:30:11;6.50;;;5.20;;
44452;SDS011;30155;52.164;21.236;2023-01-25T04:35:04;8.20;;;5.60;;
44452;SDS011;30155;52.164;21.236;2023-01-25T04:39:59;5.10;;;4.50;;
44452;SDS011;30155;52.164;21.236;2023-01-25T04:44:55;6.40;;;4.70;;
44452;SDS011;30155;52.164;21.236;2023-01-25T04:49:48;6.80;;;4.60;;
44452;SDS011;30155;52.164;21.236;2023-01-25T04:54:43;7.90;;;5.10;;
44452;SDS011;30155;52.164;21.236;2023-01-25T04:59:36;5.10;;;3.90;;
44452;SDS011;30155;52.164;21.236;2023-01-25T05:04:28;7.20;;;5.20;;
44452;SDS011;30155;52.164;21.236;2023-01-25T05:09:22;7.80;;;5.30;;
44452;SDS011;30155;52.164;21.236;2023-01-25T05:14:15;7.80;;;6.20;;
44452;SDS011;30155;52.164;21.236;2023-01-25T05:19:09;10.50;;;7.30;;
44452;SDS011;30155;52.164;21.236;2023-01-25T05:24:20;9.60;;;6.00;;
44452;SDS011;30155;52.164;21.236;2023-01-25T05:29:13;7.70;;;6.10;;
44452;SDS011;30155;52.164;21.236;2023-01-25T05:34:14;10.60;;;7.20;;
44452;SDS011;30155;52.164;21.236;2023-01-25T05:39:07;10.10;;;7.80;;
44452;SDS011;30155;52.164;21.236;2023-01-25T05:44:00;12.50;;;7.50;;
44452;SDS011;30155;52.164;21.236;2023-01-25T05:48:53;9.40;;;7.20;;
44452;SDS011;30155;52.164;21.236;2023-01-25T05:53:47;12.10;;;8.10;;
44452;SDS011;30155;52.164;21.236;2023-01-25T05:58:41;9.50;;;7.90;;
44452;SDS011;30155;52.164;21.236;2023-01-25T06:03:34;11.90;;;8.10;;
44452;SDS011;30155;52.164;21.236;2023-01-25T06:08:27;11.90;;;8.20;;
44452;SDS011;30155;52.164;21.236;2023-01-25T06:13:21;12.00;;;9.30;;
44452;SDS011;30155;52.164;21.236;2023-01-25T06:18:15;14.80;;;10.80;;
44452;SDS011;30155;52.164;21.236;2023-01-25T06:23:29;17.90;;;11.90;;
44452;SDS011;30155;52.164;21.236;2023-01-25T06:28:22;18.50;;;13.70;;
44452;SDS011;30155;52.164;21.236;2023-01-25T06:33:15;21.20;;;15.70;;
44452;SDS011;30155;52.164;21.236;2023-01-25T06:38:08;20.60;;;15.00;;
44452;SDS011;30155;52.164;21.236;2023-01-25T06:43:05;33.90;;;15.50;;
44452;SDS011;30155;52.164;21.236;2023-01-25T06:48:02;23.00;;;16.70;;
44452;SDS011;30155;52.164;21.236;2023-01-25T06:52:55;26.40;;;17.90;;
44452;SDS011;30155;52.164;21.236;2023-01-25T06:57:48;30.90;;;22.00;;
44452;SDS011;30155;52.164;21.236;2023-01-25T07:02:41;30.70;;;21.20;;
44452;SDS011;30155;52.164;21.236;2023-01-25T07:07:35;35.90;;;23.40;;
44452;SDS011;30155;52.164;21.236;2023-01-25T07:12:28;29.30;;;18.90;;
44452;SDS011;30155;52.164;21.236;2023-01-25T07:17:21;33.30;;;21.90;;
44452;SDS011;30155;52.164;21.236;2023-01-25T07:22:14;27.80;;;18.70;;
44452;SDS011;30155;52.164;21.236;2023-01-25T07:27:08;31.70;;;21.10;;
44452;SDS011;30155;52.164;21.236;2023-01-25T07:32:01;33.10;;;22.70;;
44452;SDS011;30155;52.164;21.236;2023-01-25T07:36:54;32.10;;;19.50;;
44452;SDS011;30155;52.164;21.236;2023-01-25T07:41:47;31.20;;;20.90;;
44452;SDS011;30155;52.164;21.236;2023-01-25T07:46:42;32.20;;;19.10;;
44452;SDS011;30155;52.164;21.236;2023-01-25T07:51:35;29.10;;;19.60;;
44452;SDS011;30155;52.164;21.236;2023-01-25T07:56:29;32.50;;;21.60;;
44452;SDS011;30155;52.164;21.236;2023-01-25T08:01:27;36.90;;;23.80;;
44452;SDS011;30155;52.164;21.236;2023-01-25T08:06:22;42.30;;;25.10;;
44452;SDS011;30155;52.164;21.236;2023-01-25T08:11:22;36.50;;;21.50;;
44452;SDS011;30155;52.164;21.236;2023-01-25T08:16:18;32.50;;;20.70;;
44452;SDS011;30155;52.164;21.236;2023-01-25T08:21:13;34.60;;;21.40;;
44452;SDS011;30155;52.164;21.236;2023-01-25T08:26:06;36.00;;;22.60;;
44452;SDS011;30155;52.164;21.236;2023-01-25T08:36:02;30.20;;;19.70;;
44452;SDS011;30155;52.164;21.236;2023-01-25T08:41:03;30.30;;;20.90;;
44452;SDS011;30155;52.164;21.236;2023-01-25T08:46:00;27.50;;;18.80;;
44452;SDS011;30155;52.164;21.236;2023-01-25T08:50:53;26.80;;;18.00;;
44452;SDS011;30155;52.164;21.236;2023-01-25T08:55:46;28.30;;;18.60;;
44452;SDS011;30155;52.164;21.236;2023-01-25T09:00:39;28.20;;;18.90;;
44452;SDS011;30155;52.164;21.236;2023-01-25T09:05:33;27.80;;;18.10;;
44452;SDS011;30155;52.164;21.236;2023-01-25T09:10:27;27.10;;;17.50;;
44452;SDS011;30155;52.164;21.236;2023-01-25T09:15:19;26.20;;;18.00;;
44452;SDS011;30155;52.164;21.236;2023-01-25T09:20:13;24.60;;;15.70;;
44452;SDS011;30155;52.164;21.236;2023-01-25T09:25:06;28.70;;;19.40;;
44452;SDS011;30155;52.164;21.236;2023-01-25T09:30:00;26.30;;;16.40;;
44452;SDS011;30155;52.164;21.236;2023-01-25T09:34:54;31.50;;;20.70;;
44452;SDS011;30155;52.164;21.236;2023-01-25T09:39:47;33.80;;;20.30;;
44452;SDS011;30155;52.164;21.236;2023-01-25T09:45:03;27.70;;;17.90;;
44452;SDS011;30155;52.164;21.236;2023-01-25T09:55:12;26.50;;;18.70;;
44452;SDS011;30155;52.164;21.236;2023-01-25T10:00:15;30.60;;;19.30;;
44452;SDS011;30155;52.164;21.236;2023-01-25T10:05:23;24.70;;;16.60;;
44452;SDS011;30155;52.164;21.236;2023-01-25T10:10:20;30.80;;;19.50;;
44452;SDS011;30155;52.164;21.236;2023-01-25T10:15:28;21.80;;;13.00;;
44452;SDS011;30155;52.164;21.236;2023-01-25T10:25:37;30.80;;;19.40;;
44452;SDS011;30155;52.164;21.236;2023-01-25T10:30:39;31.60;;;21.00;;
44452;SDS011;30155;52.164;21.236;2023-01-25T10:35:41;35.20;;;21.00;;
44452;SDS011;30155;52.164;21.236;2023-01-25T10:40:39;34.40;;;21.70;;
44452;SDS011;30155;52.164;21.236;2023-01-25T10:45:36;33.10;;;21.90;;
44452;SDS011;30155;52.164;21.236;2023-01-25T10:55:32;35.10;;;23.20;;
44452;SDS011;30155;52.164;21.236;2023-01-25T11:00:41;26.10;;;16.10;;
44452;SDS011;30155;52.164;21.236;2023-01-25T11:05:38;30.80;;;19.00;;
44452;SDS011;30155;52.164;21.236;2023-01-25T11:15:26;35.20;;;23.00;;
44452;SDS011;30155;52.164;21.236;2023-01-25T11:20:19;39.60;;;24.70;;
44452;SDS011;30155;52.164;21.236;2023-01-25T11:25:26;33.10;;;21.50;;
44452;SDS011;30155;52.164;21.236;2023-01-25T11:30:21;34.20;;;22.40;;
44452;SDS011;30155;52.164;21.236;2023-01-25T11:35:15;38.70;;;23.40;;
44452;SDS011;30155;52.164;21.236;2023-01-25T11:50:37;43.00;;;27.10;;
44452;SDS011;30155;52.164;21.236;2023-01-25T11:55:59;36.30;;;23.60;;
44452;SDS011;30155;52.164;21.236;2023-01-25T12:07:04;42.20;;;26.40;;
44452;SDS011;30155;52.164;21.236;2023-01-25T12:12:24;41.40;;;26.60;;
44452;SDS011;30155;52.164;21.236;2023-01-25T12:33:22;40.90;;;25.60;;
44452;SDS011;30155;52.164;21.236;2023-01-25T12:38:28;41.60;;;25.70;;
44452;SDS011;30155;52.164;21.236;2023-01-25T12:43:40;43.40;;;26.50;;
44452;SDS011;30155;52.164;21.236;2023-01-25T12:48:40;42.80;;;27.40;;
44452;SDS011;30155;52.164;21.236;2023-01-25T12:53:39;45.10;;;27.00;;
44452;SDS011;30155;52.164;21.236;2023-01-25T12:58:42;40.50;;;26.00;;
44452;SDS011;30155;52.164;21.236;2023-01-25T13:03:50;42.60;;;26.20;;
44452;SDS011;30155;52.164;21.236;2023-01-25T13:19:21;33.30;;;21.30;;
44452;SDS011;30155;52.164;21.236;2023-01-25T13:24:23;37.20;;;22.90;;
44452;SDS011;30155;52.164;21.236;2023-01-25T13:44:23;36.40;;;21.70;;
44452;SDS011;30155;52.164;21.236;2023-01-25T13:49:21;38.10;;;22.80;;
44452;SDS011;30155;52.164;21.236;2023-01-25T13:54:19;38.30;;;22.60;;
44452;SDS011;30155;52.164;21.236;2023-01-25T13:59:24;35.80;;;21.80;;
44452;SDS011;30155;52.164;21.236;2023-01-25T14:04:18;39.20;;;24.20;;
44452;SDS011;30155;52.164;21.236;2023-01-25T14:09:12;35.50;;;21.60;;
44452;SDS011;30155;52.164;21.236;2023-01-25T14:14:18;37.20;;;22.90;;
44452;SDS011;30155;52.164;21.236;2023-01-25T14:24:19;43.40;;;24.90;;
44452;SDS011;30155;52.164;21.236;2023-01-25T14:29:18;40.50;;;24.30;;
44452;SDS011;30155;52.164;21.236;2023-01-25T14:34:24;42.30;;;25.20;;
44452;SDS011;30155;52.164;21.236;2023-01-25T14:39:26;38.40;;;23.50;;
44452;SDS011;30155;52.164;21.236;2023-01-25T14:44:20;45.10;;;25.40;;
44452;SDS011;30155;52.164;21.236;2023-01-25T14:49:23;46.90;;;26.70;;
44452;SDS011;30155;52.164;21.236;2023-01-25T14:54:35;43.50;;;23.60;;
44452;SDS011;30155;52.164;21.236;2023-01-25T14:59:36;40.60;;;22.30;;
44452;SDS011;30155;52.164;21.236;2023-01-25T15:04:30;42.50;;;23.90;;
44452;SDS011;30155;52.164;21.236;2023-01-25T15:09:36;47.90;;;25.80;;
44452;SDS011;30155;52.164;21.236;2023-01-25T15:19:39;47.00;;;26.10;;
44452;SDS011;30155;52.164;21.236;2023-01-25T15:24:44;48.60;;;26.30;;
44452;SDS011;30155;52.164;21.236;2023-01-25T15:29:47;42.10;;;25.60;;
44452;SDS011;30155;52.164;21.236;2023-01-25T15:34:41;45.00;;;26.50;;
44452;SDS011;30155;52.164;21.236;2023-01-25T15:39:33;45.20;;;25.40;;
44452;SDS011;30155;52.164;21.236;2023-01-25T15:44:26;38.30;;;21.50;;
44452;SDS011;30155;52.164;21.236;2023-01-25T15:49:24;41.70;;;25.20;;
44452;SDS011;30155;52.164;21.236;2023-01-25T15:54:19;46.40;;;25.80;;
44452;SDS011;30155;52.164;21.236;2023-01-25T15:59:14;36.40;;;23.70;;
44452;SDS011;30155;52.164;21.236;2023-01-25T16:04:09;35.20;;;20.10;;
44452;SDS011;30155;52.164;21.236;2023-01-25T16:09:20;43.30;;;25.40;;
44452;SDS011;30155;52.164;21.236;2023-01-25T16:14:17;47.20;;;27.20;;
44452;SDS011;30155;52.164;21.236;2023-01-25T16:19:11;46.90;;;27.30;;
44452;SDS011;30155;52.164;21.236;2023-01-25T16:24:05;49.90;;;29.70;;
44452;SDS011;30155;52.164;21.236;2023-01-25T16:28:59;47.70;;;26.60;;
44452;SDS011;30155;52.164;21.236;2023-01-25T16:33:51;48.10;;;27.90;;
44452;SDS011;30155;52.164;21.236;2023-01-25T16:38:44;46.50;;;25.30;;
44452;SDS011;30155;52.164;21.236;2023-01-25T16:43:45;48.70;;;27.60;;
44452;SDS011;30155;52.164;21.236;2023-01-25T16:48:39;49.40;;;28.20;;
44452;SDS011;30155;52.164;21.236;2023-01-25T16:53:32;45.50;;;26.90;;
44452;SDS011;30155;52.164;21.236;2023-01-25T16:58:25;48.30;;;27.60;;
44452;SDS011;30155;52.164;21.236;2023-01-25T17:03:18;48.00;;;27.50;;
44452;SDS011;30155;52.164;21.236;2023-01-25T17:08:11;47.30;;;26.10;;
44452;SDS011;30155;52.164;21.236;2023-01-25T17:13:03;48.10;;;28.70;;
44452;SDS011;30155;52.164;21.236;2023-01-25T17:17:59;53.80;;;32.20;;
44452;SDS011;30155;52.164;21.236;2023-01-25T17:22:51;55.40;;;31.20;;
44452;SDS011;30155;52.164;21.236;2023-01-25T17:27:44;49.80;;;29.10;;
44452;SDS011;30155;52.164;21.236;2023-01-25T17:32:37;45.40;;;27.50;;
44452;SDS011;30155;52.164;21.236;2023-01-25T17:37:31;53.50;;;27.60;;
44452;SDS011;30155;52.164;21.236;2023-01-25T17:42:24;49.40;;;28.80;;
44452;SDS011;30155;52.164;21.236;2023-01-25T17:47:17;50.50;;;29.60;;
44452;SDS011;30155;52.164;21.236;2023-01-25T17:52:10;51.00;;;30.40;;
44452;SDS011;30155;52.164;21.236;2023-01-25T17:57:03;47.20;;;27.60;;
44452;SDS011;30155;52.164;21.236;2023-01-25T18:01:56;46.10;;;26.70;;
44452;SDS011;30155;52.164;21.236;2023-01-25T18:06:49;44.40;;;27.70;;
44452;SDS011;30155;52.164;21.236;2023-01-25T18:11:42;47.50;;;26.60;;
44452;SDS011;30155;52.164;21.236;2023-01-25T18:16:36;42.00;;;25.40;;
44452;SDS011;30155;52.164;21.236;2023-01-25T18:21:31;44.40;;;27.10;;
44452;SDS011;30155;52.164;21.236;2023-01-25T18:26:29;44.00;;;26.70;;
44452;SDS011;30155;52.164;21.236;2023-01-25T18:31:24;43.40;;;25.80;;
44452;SDS011;30155;52.164;21.236;2023-01-25T18:36:17;43.10;;;27.10;;
44452;SDS011;30155;52.164;21.236;2023-01-25T18:41:11;46.50;;;27.90;;
44452;SDS011;30155;52.164;21.236;2023-01-25T18:46:04;42.00;;;26.50;;
44452;SDS011;30155;52.164;21.236;2023-01-25T18:51:10;41.80;;;26.00;;
44452;SDS011;30155;52.164;21.236;2023-01-25T18:56:05;42.80;;;26.20;;
44452;SDS011;30155;52.164;21.236;2023-01-25T19:01:09;38.30;;;24.20;;
44452;SDS011;30155;52.164;21.236;2023-01-25T19:06:05;44.70;;;27.40;;
44452;SDS011;30155;52.164;21.236;2023-01-25T19:10:59;42.00;;;25.50;;
44452;SDS011;30155;52.164;21.236;2023-01-25T19:15:59;40.60;;;26.10;;
44452;SDS011;30155;52.164;21.236;2023-01-25T19:20:56;49.30;;;28.00;;
44452;SDS011;30155;52.164;21.236;2023-01-25T19:25:53;47.40;;;27.20;;
44452;SDS011;30155;52.164;21.236;2023-01-25T19:30:46;43.30;;;26.50;;
44452;SDS011;30155;52.164;21.236;2023-01-25T19:35:39;44.70;;;26.90;;
44452;SDS011;30155;52.164;21.236;2023-01-25T19:40:32;44.90;;;27.90;;
44452;SDS011;30155;52.164;21.236;2023-01-25T19:45:25;43.70;;;26.60;;
44452;SDS011;30155;52.164;21.236;2023-01-25T19:50:18;45.70;;;26.60;;
44452;SDS011;30155;52.164;21.236;2023-01-25T19:55:11;45.60;;;27.00;;
44452;SDS011;30155;52.164;21.236;2023-01-25T20:00:04;49.60;;;26.90;;
44452;SDS011;30155;52.164;21.236;2023-01-25T20:04:59;44.10;;;27.30;;
44452;SDS011;30155;52.164;21.236;2023-01-25T20:09:52;40.10;;;23.70;;
44452;SDS011;30155;52.164;21.236;2023-01-25T20:14:45;50.30;;;27.60;;
44452;SDS011;30155;52.164;21.236;2023-01-25T20:19:38;50.60;;;29.40;;
44452;SDS011;30155;52.164;21.236;2023-01-25T20:24:31;52.30;;;30.50;;
44452;SDS011;30155;52.164;21.236;2023-01-25T20:29:23;51.50;;;30.70;;
44452;SDS011;30155;52.164;21.236;2023-01-25T20:34:20;53.60;;;31.00;;
44452;SDS011;30155;52.164;21.236;2023-01-25T20:39:15;51.20;;;30.60;;
44452;SDS011;30155;52.164;21.236;2023-01-25T20:44:11;49.80;;;29.70;;
44452;SDS011;30155;52.164;21.236;2023-01-25T20:49:09;56.60;;;32.10;;
44452;SDS011;30155;52.164;21.236;2023-01-25T20:54:06;50.40;;;33.00;;
44452;SDS011;30155;52.164;21.236;2023-01-25T20:58:59;44.90;;;29.10;;
44452;SDS011;30155;52.164;21.236;2023-01-25T21:03:52;52.30;;;31.90;;
44452;SDS011;30155;52.164;21.236;2023-01-25T21:08:47;44.50;;;27.20;;
44452;SDS011;30155;52.164;21.236;2023-01-25T21:13:40;52.20;;;30.70;;
44452;SDS011;30155;52.164;21.236;2023-01-25T21:18:34;49.60;;;29.20;;
44452;SDS011;30155;52.164;21.236;2023-01-25T21:23:31;46.00;;;25.80;;
44452;SDS011;30155;52.164;21.236;2023-01-25T21:28:25;47.20;;;28.10;;
44452;SDS011;30155;52.164;21.236;2023-01-25T21:33:19;43.90;;;27.80;;
44452;SDS011;30155;52.164;21.236;2023-01-25T21:38:12;47.60;;;29.80;;
44452;SDS011;30155;52.164;21.236;2023-01-25T21:43:05;48.00;;;28.70;;
44452;SDS011;30155;52.164;21.236;2023-01-25T21:47:58;50.60;;;29.40;;
44452;SDS011;30155;52.164;21.236;2023-01-25T21:52:52;45.30;;;27.00;;
44452;SDS011;30155;52.164;21.236;2023-01-25T21:57:45;48.00;;;29.50;;
44452;SDS011;30155;52.164;21.236;2023-01-25T22:02:37;50.30;;;31.50;;
44452;SDS011;30155;52.164;21.236;2023-01-25T22:07:31;54.00;;;32.80;;
44452;SDS011;30155;52.164;21.236;2023-01-25T22:12:24;43.30;;;26.90;;
44452;SDS011;30155;52.164;21.236;2023-01-25T22:17:16;49.50;;;28.70;;
44452;SDS011;30155;52.164;21.236;2023-01-25T22:22:13;45.40;;;28.40;;
44452;SDS011;30155;52.164;21.236;2023-01-25T22:32:08;49.00;;;31.60;;
44452;SDS011;30155;52.164;21.236;2023-01-25T22:37:02;51.20;;;29.30;;
44452;SDS011;30155;52.164;21.236;2023-01-25T22:41:55;51.90;;;32.20;;
44452;SDS011;30155;52.164;21.236;2023-01-25T22:46:48;49.60;;;30.90;;
44452;SDS011;30155;52.164;21.236;2023-01-25T22:51:43;52.20;;;31.00;;
44452;SDS011;30155;52.164;21.236;2023-01-25T22:56:36;57.40;;;32.10;;
44452;SDS011;30155;52.164;21.236;2023-01-25T23:01:30;54.40;;;32.80;;
44452;SDS011;30155;52.164;21.236;2023-01-25T23:06:29;47.30;;;27.80;;
44452;SDS011;30155;52.164;21.236;2023-01-25T23:11:25;58.80;;;32.10;;
44452;SDS011;30155;52.164;21.236;2023-01-25T23:16:26;58.80;;;35.60;;
44452;SDS011;30155;52.164;21.236;2023-01-25T23:21:19;54.40;;;32.50;;
44452;SDS011;30155;52.164;21.236;2023-01-25T23:26:14;58.30;;;33.50;;
44452;SDS011;30155;52.164;21.236;2023-01-25T23:31:09;57.30;;;32.90;;
44452;SDS011;30155;52.164;21.236;2023-01-25T23:36:09;57.60;;;34.80;;
44452;SDS011;30155;52.164;21.236;2023-01-25T23:41:04;59.60;;;36.30;;
44452;SDS011;30155;52.164;21.236;2023-01-25T23:45:57;64.30;;;38.70;;
44452;SDS011;30155;52.164;21.236;2023-01-25T23:50:51;59.20;;;36.20;;
44452;SDS011;30155;52.164;21.236;2023-01-25T23:55:54;68.30;;;38.70;;
